Time;durP1;ratioP1;P1;durP2;ratioP2;P2;SDS_P1;SDS_P2;PMS_P1;PMS_P2;Temp;Humidity;BMP_temperature;BMP_pressure;BME280_temperature;BME280_humidity;BME280_pressure;Samples;Min_cycle;Max_cycle;Signal;HPM_P1;HPM_P2
2021/07/04 00:00:26;;;;;;;10.90;9.87;;;;;;;18.46;64.24;100896.59;5057869;28;20420;-65
2021/07/04 00:02:53;;;;;;;11.43;10.20;;;;;;;18.16;64.54;100909.50;5057537;28;20170;-65
2021/07/04 00:05:20;;;;;;;12.20;11.00;;;;;;;18.50;63.45;100899.09;5057756;28;20416;-65
2021/07/04 00:07:45;;;;;;;11.80;10.60;;;;;;;18.43;64.72;100893.97;5058111;28;20469;-66
2021/07/04 00:10:14;;;;;;;11.97;10.80;;;;;;;18.37;64.92;100902.91;5057699;28;20809;-65
2021/07/04 00:12:40;;;;;;;13.53;11.70;;;;;;;18.35;65.08;100900.28;5057601;28;20208;-65
2021/07/04 00:15:08;;;;;;;12.40;11.20;;;;;;;18.04;65.90;100909.72;5060656;28;20386;-65
2021/07/04 00:17:33;;;;;;;14.70;12.47;;;;;;;18.25;65.06;100906.69;5061740;28;20268;-65
2021/07/04 00:19:58;;;;;;;13.23;11.80;;;;;;;18.27;65.23;100904.00;5061857;28;20418;-65
2021/07/04 00:22:24;;;;;;;12.50;11.20;;;;;;;18.20;65.78;100903.25;5062268;28;20174;-64
2021/07/04 00:24:49;;;;;;;11.87;10.77;;;;;;;18.12;66.01;100908.66;5061660;28;20286;-65
2021/07/04 00:27:15;;;;;;;11.80;10.70;;;;;;;18.27;65.71;100904.00;5061732;28;20420;-65
2021/07/04 00:29:40;;;;;;;12.77;11.47;;;;;;;18.14;65.90;100898.97;5062157;28;20185;-65
2021/07/04 00:32:06;;;;;;;12.80;11.50;;;;;;;18.26;65.63;100900.47;5061476;28;20170;-64
2021/07/04 00:34:31;;;;;;;12.27;11.17;;;;;;;18.20;65.68;100891.81;5061493;28;20224;-65
2021/07/04 00:36:56;;;;;;;11.80;10.70;;;;;;;18.20;65.80;100892.69;5062006;28;20187;-65
2021/07/04 00:39:21;;;;;;;13.17;11.87;;;;;;;18.27;65.38;100890.81;5061682;28;20177;-65
2021/07/04 00:41:47;;;;;;;12.90;11.70;;;;;;;18.39;65.04;100887.91;5062071;28;20169;-64
2021/07/04 00:44:12;;;;;;;13.30;11.90;;;;;;;18.35;65.05;100886.25;5061858;28;20435;-65
2021/07/04 00:46:37;;;;;;;12.30;11.20;;;;;;;18.21;65.63;100885.63;5061283;28;20166;-65
2021/07/04 00:49:03;;;;;;;13.47;12.17;;;;;;;18.41;64.84;100880.81;5061389;28;20173;-65
2021/07/04 00:51:28;;;;;;;12.20;11.00;;;;;;;18.52;64.52;100881.47;5061658;28;20170;-65
2021/07/04 00:53:54;;;;;;;12.10;11.00;;;;;;;18.47;64.92;100885.97;5060961;28;20213;-65
2021/07/04 00:56:19;;;;;;;12.73;11.57;;;;;;;18.71;64.48;100873.13;5061017;28;20226;-65
2021/07/04 00:58:44;;;;;;;11.80;10.70;;;;;;;18.68;64.59;100881.13;5061657;28;20176;-65
2021/07/04 01:01:10;;;;;;;12.43;11.13;;;;;;;18.55;65.04;100875.28;5060429;28;20234;-65
2021/07/04 01:03:35;;;;;;;12.30;11.20;;;;;;;18.85;64.40;100870.22;5061021;28;20174;-65
2021/07/04 01:06:00;;;;;;;12.30;11.20;;;;;;;18.73;65.16;100871.34;5061566;28;20264;-65
2021/07/04 01:08:26;;;;;;;11.80;10.70;;;;;;;18.68;65.09;100870.56;5061091;28;20178;-64
2021/07/04 01:10:52;;;;;;;12.37;10.80;;;;;;;18.69;65.03;100873.19;5060790;28;20173;-64
2021/07/04 01:13:17;;;;;;;11.53;10.63;;;;;;;18.63;65.27;100875.09;5061034;28;20448;-64
2021/07/04 01:15:43;;;;;;;12.27;11.07;;;;;;;18.89;64.47;100868.38;5060837;28;20180;-64
2021/07/04 01:18:09;;;;;;;11.47;10.47;;;;;;;18.51;65.70;100870.97;5060746;28;20200;-64
2021/07/04 01:20:36;;;;;;;12.20;11.10;;;;;;;18.65;65.34;100870.66;5061248;28;20170;-64
2021/07/04 01:23:12;;;;;;;12.13;11.13;;;;;;;18.62;65.62;100876.88;5060652;28;20469;-64
2021/07/04 01:25:44;;;;;;;12.40;11.30;;;;;;;18.56;65.54;100876.13;5060307;28;20430;-64
2021/07/04 01:28:09;;;;;;;11.83;10.73;;;;;;;18.69;65.31;100874.97;5059953;28;20419;-64
2021/07/04 01:30:35;;;;;;;11.73;10.53;;;;;;;18.62;65.24;100865.44;5060491;28;20755;-65
2021/07/04 01:33:00;;;;;;;11.80;10.70;;;;;;;18.46;66.02;100865.75;5060570;28;20208;-65
2021/07/04 01:35:26;;;;;;;12.77;11.67;;;;;;;18.44;65.95;100870.22;5060451;28;20273;-65
2021/07/04 01:37:51;;;;;;;12.73;11.63;;;;;;;18.29;65.97;100866.13;5060343;28;20512;-63
2021/07/04 01:40:17;;;;;;;11.80;10.80;;;;;;;18.37;66.11;100860.66;5060704;28;20413;-64
2021/07/04 01:42:43;;;;;;;12.30;11.20;;;;;;;18.14;66.49;100864.66;5060037;28;20165;-64
2021/07/04 01:45:10;;;;;;;12.67;11.47;;;;;;;18.09;66.65;100863.88;5060186;28;20508;-64
2021/07/04 01:47:40;;;;;;;12.30;11.20;;;;;;;18.30;66.35;100848.50;5059821;28;20447;-64
2021/07/04 01:50:08;;;;;;;12.50;11.50;;;;;;;18.23;65.85;100847.78;5060194;28;20829;-64
2021/07/04 01:52:34;;;;;;;11.70;10.70;;;;;;;18.38;65.79;100854.50;5059845;28;20434;-65
2021/07/04 01:54:59;;;;;;;12.93;11.90;;;;;;;18.37;65.61;100846.63;5060610;28;20382;-64
2021/07/04 01:57:25;;;;;;;11.50;10.30;;;;;;;18.16;66.18;100851.44;5060058;28;20268;-64
2021/07/04 01:59:53;;;;;;;11.77;10.80;;;;;;;18.27;66.14;100851.22;5059972;28;20170;-64
2021/07/04 02:02:19;;;;;;;12.70;11.30;;;;;;;18.29;66.00;100849.41;5060124;28;20194;-64
2021/07/04 02:04:44;;;;;;;12.30;11.20;;;;;;;18.35;66.22;100844.88;5059864;28;20451;-65
2021/07/04 02:07:17;;;;;;;11.80;10.80;;;;;;;18.51;65.13;100844.56;5059870;28;20276;-64
2021/07/04 02:09:44;;;;;;;12.80;11.60;;;;;;;18.42;65.28;100842.97;5060389;28;20169;-64
2021/07/04 02:12:10;;;;;;;11.83;10.83;;;;;;;18.50;65.43;100842.81;5059928;28;20841;-64
2021/07/04 02:14:35;;;;;;;12.30;11.30;;;;;;;18.26;66.26;100846.84;5059729;28;20486;-64
2021/07/04 02:17:00;;;;;;;11.00;10.10;;;;;;;18.22;66.07;100839.88;5060255;28;20405;-65
2021/07/04 02:19:33;;;;;;;11.27;10.37;;;;;;;18.44;65.43;100840.28;5059669;28;20582;-64
2021/07/04 02:21:59;;;;;;;11.40;10.40;;;;;;;18.26;65.84;100841.56;5059565;28;20488;-65
2021/07/04 02:24:24;;;;;;;11.87;10.67;;;;;;;18.15;66.11;100847.91;5059408;28;20464;-64
2021/07/04 02:26:49;;;;;;;11.27;10.27;;;;;;;17.93;66.35;100851.91;5059382;28;20535;-64
2021/07/04 02:29:15;;;;;;;10.50;9.60;;;;;;;17.85;66.44;100849.34;5059567;28;20196;-64
2021/07/04 02:31:40;;;;;;;9.50;8.80;;;;;;;17.82;66.13;100849.44;5059309;28;20177;-64
2021/07/04 02:34:05;;;;;;;12.70;9.50;;;;;;;17.69;66.58;100846.13;5059123;28;20205;-64
2021/07/04 02:36:31;;;;;;;9.63;8.73;;;;;;;17.85;66.16;100844.94;5059346;28;20486;-65
2021/07/04 02:38:58;;;;;;;10.73;9.83;;;;;;;17.46;67.29;100844.78;5059140;28;20197;-65
2021/07/04 02:41:23;;;;;;;10.50;9.60;;;;;;;17.88;66.04;100845.81;5059154;28;20170;-65
2021/07/04 02:43:48;;;;;;;10.53;9.63;;;;;;;17.82;66.32;100852.94;5059462;28;20404;-64
2021/07/04 02:46:14;;;;;;;10.87;9.90;;;;;;;17.64;66.36;100855.88;5058974;28;20416;-65
2021/07/04 02:48:39;;;;;;;10.27;9.40;;;;;;;17.99;65.90;100849.97;5059203;28;20182;-64
2021/07/04 02:51:04;;;;;;;9.93;9.13;;;;;;;17.90;65.96;100854.53;5059443;28;20173;-65
2021/07/04 02:53:30;;;;;;;10.97;9.97;;;;;;;18.05;65.33;100853.41;5058700;28;20209;-65
2021/07/04 02:55:55;;;;;;;9.60;8.80;;;;;;;17.84;65.94;100861.66;5058947;28;20185;-65
2021/07/04 02:58:20;;;;;;;10.10;9.20;;;;;;;17.30;67.42;100851.19;5059181;28;20169;-65
2021/07/04 03:00:46;;;;;;;10.27;9.37;;;;;;;17.85;65.76;100852.84;5058810;28;20201;-66
2021/07/04 03:03:11;;;;;;;10.47;9.57;;;;;;;17.90;65.21;100850.16;5058540;28;20166;-66
2021/07/04 03:05:37;;;;;;;10.70;9.80;;;;;;;17.88;65.35;100845.81;5059322;28;20170;-65
2021/07/04 03:08:03;;;;;;;10.13;9.33;;;;;;;17.93;65.08;100851.91;5058786;28;20228;-64
2021/07/04 03:10:28;;;;;;;10.87;9.97;;;;;;;17.97;65.05;100850.94;5058599;28;20200;-65
2021/07/04 03:12:55;;;;;;;10.97;10.07;;;;;;;18.12;64.23;100853.25;5059277;28;20460;-65
2021/07/04 03:15:21;;;;;;;10.87;9.83;;;;;;;17.93;65.80;100851.91;5058605;28;20180;-65
2021/07/04 03:17:47;;;;;;;11.13;10.20;;;;;;;17.82;66.06;100855.56;5058537;28;20806;-65
2021/07/04 03:20:13;;;;;;;11.07;10.17;;;;;;;17.62;66.54;100850.66;5058897;28;20177;-65
2021/07/04 03:22:39;;;;;;;11.37;10.37;;;;;;;17.89;66.26;100847.50;5058271;28;20232;-65
2021/07/04 03:25:06;;;;;;;14.17;12.87;;;;;;;17.90;66.04;100846.63;5058101;28;20508;-65
2021/07/04 03:27:31;;;;;;;16.63;15.13;;;;;;;18.04;65.49;100842.00;5058602;28;20165;-64
2021/07/04 03:29:57;;;;;;;25.37;22.93;;;;;;;18.20;65.17;100841.66;5058354;28;20419;-64
2021/07/04 03:32:22;;;;;;;27.73;25.03;;;;;;;17.94;65.60;100837.78;5058014;28;20177;-64
2021/07/04 03:34:49;;;;;;;28.90;25.90;;;;;;;18.26;64.59;100842.41;5058865;28;20296;-65
2021/07/04 03:37:15;;;;;;;24.73;22.03;;;;;;;18.11;64.82;100842.75;5058172;28;20189;-65
2021/07/04 03:39:40;;;;;;;24.20;21.70;;;;;;;18.37;64.07;100846.63;5058280;28;20428;-65
2021/07/04 03:42:05;;;;;;;20.53;18.70;;;;;;;18.69;62.83;100836.22;5058722;28;20683;-65
2021/07/04 03:44:31;;;;;;;20.93;18.00;;;;;;;19.67;59.85;100839.16;5057969;28;20173;-65
2021/07/04 03:46:56;;;;;;;18.07;16.10;;;;;;;20.47;57.08;100834.28;5058248;28;20200;-65
2021/07/04 03:49:21;;;;;;;15.80;14.30;;;;;;;21.04;54.99;100823.72;5058465;28;20498;-65
2021/07/04 03:51:46;;;;;;;11.90;10.80;;;;;;;21.40;54.23;100827.84;5058029;28;20181;-65
2021/07/04 03:54:12;;;;;;;12.77;11.53;;;;;;;21.65;53.09;100831.41;5057700;28;20220;-64
2021/07/04 03:56:37;;;;;;;11.77;10.67;;;;;;;22.29;51.25;100831.78;5058534;28;20173;-64
2021/07/04 03:59:02;;;;;;;11.73;10.63;;;;;;;22.33;51.73;100828.06;5057935;28;20432;-64
2021/07/04 04:01:28;;;;;;;11.83;10.93;;;;;;;23.01;49.63;100823.63;5057863;28;20181;-64
2021/07/04 04:03:53;;;;;;;10.47;9.57;;;;;;;21.74;53.14;100830.19;5058205;28;20170;-64
2021/07/04 04:06:19;;;;;;;9.40;8.60;;;;;;;23.07;49.59;100829.63;5057767;28;20247;-64
2021/07/04 04:08:45;;;;;;;9.90;9.00;;;;;;;22.86;50.03;100824.25;5057759;28;20184;-65
2021/07/04 04:11:11;;;;;;;9.37;8.57;;;;;;;23.43;48.88;100826.38;5058271;28;20212;-65
2021/07/04 04:13:37;;;;;;;8.80;8.00;;;;;;;23.65;49.18;100827.19;5057444;28;20459;-65
2021/07/04 04:16:02;;;;;;;9.60;8.63;;;;;;;23.39;49.95;100828.31;5057673;28;20518;-65
2021/07/04 04:18:28;;;;;;;9.03;8.30;;;;;;;23.83;48.98;100828.19;5058156;28;20165;-65
2021/07/04 04:20:55;;;;;;;9.30;8.37;;;;;;;23.73;50.23;100828.66;5057735;28;20205;-65
2021/07/04 04:23:20;;;;;;;9.17;7.60;;;;;;;23.65;49.27;100836.97;5057281;28;20170;-65
2021/07/04 04:25:46;;;;;;;8.53;7.93;;;;;;;24.85;46.89;100828.81;5058143;28;20412;-65
2021/07/04 04:28:11;;;;;;;9.90;8.00;;;;;;;24.70;46.90;100827.78;5057685;28;20180;-65
2021/07/04 04:30:36;;;;;;;8.40;7.77;;;;;;;24.04;48.82;100833.50;5057670;28;20184;-65
2021/07/04 04:33:03;;;;;;;8.50;7.80;;;;;;;25.19;46.44;100827.19;5057900;28;20521;-65
2021/07/04 04:35:28;;;;;;;8.17;7.57;;;;;;;24.45;47.42;100827.19;5057823;28;20542;-65
2021/07/04 04:37:53;;;;;;;8.40;7.70;;;;;;;25.24;46.38;100829.59;5057550;28;20420;-66
2021/07/04 04:40:19;;;;;;;8.40;7.50;;;;;;;25.67;45.15;100832.75;5057964;28;20234;-68
2021/07/04 04:42:44;;;;;;;7.60;7.00;;;;;;;25.70;45.06;100834.41;5057300;28;20173;-67
2021/07/04 04:45:10;;;;;;;8.07;7.40;;;;;;;26.27;43.44;100831.41;5056680;28;20264;-67
2021/07/04 04:47:35;;;;;;;7.80;7.10;;;;;;;26.63;43.32;100824.06;5057863;28;20267;-67
2021/07/04 04:50:01;;;;;;;8.37;7.67;;;;;;;24.51;47.18;100829.56;5057374;28;20216;-69
2021/07/04 04:52:26;;;;;;;8.77;7.97;;;;;;;24.80;47.30;100822.88;5055605;28;20189;-69
2021/07/04 04:54:51;;;;;;;8.17;7.50;;;;;;;23.52;49.86;100836.66;5057496;28;20412;-68
2021/07/04 04:57:17;;;;;;;7.93;7.23;;;;;;;24.60;46.43;100828.25;5057228;28;20205;-67
2021/07/04 04:59:42;;;;;;;7.50;6.90;;;;;;;25.82;44.80;100814.22;5057191;28;20187;-67
2021/07/04 05:02:07;;;;;;;6.93;6.40;;;;;;;26.06;43.28;100820.09;5060624;28;20215;-67
2021/07/04 05:04:33;;;;;;;7.00;6.50;;;;;;;26.91;40.66;100812.69;5060955;28;20490;-67
2021/07/04 05:06:58;;;;;;;7.67;7.07;;;;;;;25.77;43.38;100814.44;5060889;28;20404;-66
2021/07/04 05:09:24;;;;;;;7.70;7.10;;;;;;;26.47;42.24;100811.59;5061085;28;20251;-66
2021/07/04 05:11:50;;;;;;;10.40;6.90;;;;;;;26.10;43.37;100807.41;5060882;28;20181;-65
2021/07/04 05:14:19;;;;;;;7.93;7.33;;;;;;;26.72;42.14;100797.72;5059996;28;20202;-66
2021/07/04 05:16:44;;;;;;;7.20;6.63;;;;;;;25.69;44.41;100808.66;5061085;28;20166;-65
2021/07/04 05:19:13;;;;;;;9.17;8.00;;;;;;;27.66;40.14;100801.19;5060754;28;20809;-65
2021/07/04 05:21:39;;;;;;;7.77;6.97;;;;;;;26.50;42.25;100807.88;5060343;28;20177;-65
2021/07/04 05:24:06;;;;;;;7.83;7.23;;;;;;;26.85;41.63;100805.88;5059724;28;20845;-65
2021/07/04 05:26:31;;;;;;;8.13;7.53;;;;;;;25.58;44.84;100806.53;5060316;28;20260;-67
2021/07/04 05:28:57;;;;;;;7.47;6.97;;;;;;;27.14;40.28;100806.00;5059906;28;20515;-66
2021/07/04 05:31:23;;;;;;;8.00;7.20;;;;;;;27.03;40.88;100801.28;5060465;28;20193;-66
2021/07/04 05:33:48;;;;;;;7.77;7.17;;;;;;;26.33;42.62;100804.34;5060133;28;20931;-66
2021/07/04 05:36:14;;;;;;;8.30;7.60;;;;;;;26.91;41.47;100801.13;5060681;28;20253;-67
2021/07/04 05:38:43;;;;;;;7.70;7.10;;;;;;;28.96;36.39;100801.88;5060394;28;20188;-66
2021/07/04 05:41:12;;;;;;;7.90;7.23;;;;;;;27.74;39.20;100798.91;5060252;28;20173;-66
2021/07/04 05:43:43;;;;;;;7.17;6.57;;;;;;;26.66;40.66;100803.38;5059556;28;20450;-66
2021/07/04 05:46:09;;;;;;;8.00;7.30;;;;;;;28.26;38.06;100792.09;5060203;28;20408;-67
2021/07/04 05:48:35;;;;;;;7.37;6.77;;;;;;;27.79;39.39;100794.09;5059999;28;20422;-67
2021/07/04 05:51:01;;;;;;;7.70;7.10;;;;;;;27.51;39.44;100790.44;5059745;28;20443;-66
2021/07/04 05:53:26;;;;;;;7.70;7.10;;;;;;;27.77;38.40;100785.31;5059640;28;20769;-66
2021/07/04 05:55:52;;;;;;;7.57;6.97;;;;;;;30.03;34.90;100792.75;5060319;28;20252;-67
2021/07/04 05:58:17;;;;;;;7.50;6.80;;;;;;;30.66;33.54;100783.78;5060293;28;20201;-67
2021/07/04 06:00:43;;;;;;;7.60;7.00;;;;;;;30.83;33.07;100785.22;5059955;28;20206;-67
2021/07/04 06:03:08;;;;;;;6.90;6.40;;;;;;;30.05;33.65;100790.84;5059803;28;20188;-68
2021/07/04 06:05:34;;;;;;;6.40;5.90;;;;;;;29.99;33.80;100795.78;5060132;28;20224;-66
2021/07/04 06:07:59;;;;;;;6.70;6.20;;;;;;;26.61;38.86;100794.75;5059756;28;20188;-67
2021/07/04 06:10:24;;;;;;;6.90;6.40;;;;;;;29.21;35.30;100784.97;5059758;28;20213;-67
2021/07/04 06:12:50;;;;;;;6.80;6.30;;;;;;;30.77;32.77;100783.84;5058879;28;20201;-68
2021/07/04 06:15:15;;;;;;;6.67;6.17;;;;;;;30.53;33.06;100782.00;5059722;28;20177;-68
2021/07/04 06:17:41;;;;;;;6.53;6.13;;;;;;;29.94;34.24;100788.03;5058920;28;20169;-68
2021/07/04 06:20:09;;;;;;;7.47;6.87;;;;;;;30.38;33.03;100792.03;5060003;28;20550;-69
2021/07/04 06:22:35;;;;;;;6.70;6.20;;;;;;;30.79;32.29;100781.88;5059349;28;20230;-66
2021/07/04 06:25:01;;;;;;;7.13;6.63;;;;;;;30.48;33.48;100786.00;5059250;28;20472;-67
2021/07/04 06:27:26;;;;;;;6.20;5.60;;;;;;;30.76;32.73;100779.44;5059735;28;20423;-69
2021/07/04 06:29:52;;;;;;;6.77;6.20;;;;;;;30.92;32.18;100784.53;5059411;28;20226;-67
2021/07/04 06:32:17;;;;;;;6.07;5.67;;;;;;;30.82;31.37;100776.25;5059154;28;20177;-68
2021/07/04 06:34:42;;;;;;;5.90;5.50;;;;;;;29.81;33.18;100785.34;5059347;28;20199;-67
2021/07/04 06:37:09;;;;;;;5.77;5.37;;;;;;;30.49;31.72;100772.44;5059126;28;20198;-66
2021/07/04 06:39:34;;;;;;;8.00;5.70;;;;;;;30.86;31.07;100768.81;5059206;28;20438;-66
2021/07/04 06:41:59;;;;;;;5.87;5.37;;;;;;;31.00;31.35;100776.72;5059429;28;20558;-68
2021/07/04 06:44:25;;;;;;;6.20;5.70;;;;;;;29.67;33.17;100788.13;5058946;28;20177;-67
2021/07/04 06:46:50;;;;;;;5.70;5.30;;;;;;;30.50;31.82;100781.34;5059130;28;20204;-68
2021/07/04 06:49:15;;;;;;;5.90;5.50;;;;;;;32.12;29.94;100777.00;5059184;28;20231;-67
2021/07/04 06:51:40;;;;;;;5.60;5.20;;;;;;;31.09;31.24;100780.56;5058884;28;20174;-68
2021/07/04 06:54:06;;;;;;;6.10;5.60;;;;;;;31.70;30.73;100771.38;5058660;28;20490;-68
2021/07/04 06:56:31;;;;;;;5.70;5.30;;;;;;;29.26;34.53;100781.16;5059293;28;20535;-68
2021/07/04 06:58:56;;;;;;;5.77;5.37;;;;;;;31.02;31.73;100773.91;5058817;28;20177;-68
2021/07/04 07:01:22;;;;;;;5.40;5.00;;;;;;;30.36;31.87;100779.66;5058655;28;20177;-67
2021/07/04 07:03:47;;;;;;;6.53;4.87;;;;;;;31.32;31.23;100765.31;5058784;28;20178;-68
2021/07/04 07:06:12;;;;;;;5.90;5.33;;;;;;;28.98;33.97;100772.25;5058343;28;20208;-65
2021/07/04 07:08:38;;;;;;;5.20;4.80;;;;;;;28.90;33.93;100776.31;5058379;28;20174;-65
2021/07/04 07:11:03;;;;;;;5.10;4.70;;;;;;;29.52;33.09;100771.28;5057921;28;20174;-66
2021/07/04 07:13:28;;;;;;;9.73;5.00;;;;;;;28.83;34.45;100774.13;5058301;28;20228;-66
2021/07/04 07:15:54;;;;;;;5.20;4.80;;;;;;;30.02;32.47;100763.31;5058473;28;20170;-66
2021/07/04 07:18:19;;;;;;;5.13;4.73;;;;;;;28.68;34.90;100773.34;5058718;28;20437;-66
2021/07/04 07:20:44;;;;;;;5.40;4.90;;;;;;;30.48;32.50;100768.03;5058263;28;20169;-66
2021/07/04 07:23:10;;;;;;;5.03;4.53;;;;;;;29.15;33.05;100771.97;5058077;28;20165;-66
2021/07/04 07:25:35;;;;;;;4.97;4.57;;;;;;;29.83;32.95;100769.09;5058420;28;20221;-66
2021/07/04 07:28:01;;;;;;;4.53;4.23;;;;;;;31.49;30.69;100761.31;5058289;28;20188;-66
2021/07/04 07:30:26;;;;;;;4.80;4.40;;;;;;;31.14;30.74;100761.38;5058210;28;20244;-66
2021/07/04 07:32:51;;;;;;;6.33;5.00;;;;;;;28.92;34.40;100768.16;5058255;28;20263;-66
2021/07/04 07:35:18;;;;;;;5.50;5.10;;;;;;;31.41;30.75;100758.34;5058248;28;20181;-66
2021/07/04 07:37:44;;;;;;;4.83;4.37;;;;;;;32.68;28.87;100762.56;5058203;28;20519;-67
2021/07/04 07:40:09;;;;;;;5.97;4.20;;;;;;;33.54;26.81;100750.81;5058568;28;20412;-66
2021/07/04 07:42:35;;;;;;;4.47;4.17;;;;;;;33.27;27.29;100756.81;5058063;28;20174;-67
2021/07/04 07:45:02;;;;;;;5.10;4.70;;;;;;;31.68;29.52;100754.50;5058019;28;20169;-66
2021/07/04 07:47:28;;;;;;;4.50;4.20;;;;;;;31.97;29.19;100751.28;5058190;28;20173;-69
2021/07/04 07:49:53;;;;;;;5.33;4.83;;;;;;;32.70;28.30;100755.19;5058163;28;20442;-67
2021/07/04 07:52:18;;;;;;;4.77;4.47;;;;;;;30.10;32.54;100763.59;5057946;28;20176;-67
2021/07/04 07:54:44;;;;;;;4.90;4.30;;;;;;;31.65;29.97;100754.72;5058460;28;20233;-66
2021/07/04 07:57:09;;;;;;;4.90;4.50;;;;;;;28.99;35.11;100766.75;5057777;28;20185;-68
2021/07/04 07:59:35;;;;;;;5.10;4.70;;;;;;;31.19;31.11;100760.03;5057777;28;20288;-67
2021/07/04 08:02:00;;;;;;;5.00;4.60;;;;;;;31.80;31.00;100758.91;5058288;28;20398;-67
2021/07/04 08:04:26;;;;;;;5.03;4.67;;;;;;;30.67;31.90;100758.59;5057738;28;20247;-66
2021/07/04 08:06:51;;;;;;;5.17;4.77;;;;;;;30.29;32.53;100760.44;5057000;28;20178;-67
2021/07/04 08:09:16;;;;;;;4.90;4.50;;;;;;;28.16;36.08;100764.16;5058420;28;20558;-69
2021/07/04 08:11:42;;;;;;;5.60;5.10;;;;;;;31.07;31.52;100752.91;5057669;28;20174;-67
2021/07/04 08:14:07;;;;;;;5.30;4.90;;;;;;;29.55;33.80;100750.44;5057554;28;20201;-67
2021/07/04 08:16:33;;;;;;;5.27;4.90;;;;;;;30.33;33.35;100744.94;5058285;28;20437;-66
2021/07/04 08:18:58;;;;;;;5.90;4.70;;;;;;;29.64;33.61;100753.44;5057624;28;20185;-66
2021/07/04 08:21:23;;;;;;;5.10;4.70;;;;;;;29.02;34.50;100754.97;5057713;28;20173;-66
2021/07/04 08:23:49;;;;;;;5.67;5.20;;;;;;;28.12;35.72;100752.78;5057614;28;20232;-66
2021/07/04 08:26:14;;;;;;;5.60;5.10;;;;;;;31.45;29.84;100746.38;5057567;28;20177;-67
2021/07/04 08:28:40;;;;;;;6.03;5.50;;;;;;;29.82;32.68;100752.13;5056949;28;20178;-66
2021/07/04 08:31:05;;;;;;;5.10;4.70;;;;;;;31.35;30.58;100739.97;5057537;28;20180;-66
2021/07/04 08:33:30;;;;;;;5.00;4.60;;;;;;;32.12;29.47;100746.50;5057325;28;20213;-66
2021/07/04 08:35:56;;;;;;;4.97;4.57;;;;;;;32.31;29.53;100740.47;5060303;28;20173;-66
2021/07/04 08:38:21;;;;;;;4.80;4.40;;;;;;;33.06;28.40;100736.03;5061301;28;20182;-67
2021/07/04 08:40:49;;;;;;;5.33;4.90;;;;;;;30.96;31.24;100739.34;5060513;28;20178;-66
2021/07/04 08:43:29;;;;;;;5.80;5.40;;;;;;;31.61;30.37;100731.69;5061659;28;20165;-66
2021/07/04 08:45:55;;;;;;;5.60;5.10;;;;;;;30.59;31.01;100726.88;5061052;28;20411;-67
2021/07/04 08:48:20;;;;;;;5.00;4.60;;;;;;;31.58;30.20;100732.75;5061175;28;20419;-69
2021/07/04 08:50:46;;;;;;;5.80;5.40;;;;;;;29.81;33.25;100728.91;5061288;28;20532;-70
2021/07/04 08:53:11;;;;;;;5.90;5.47;;;;;;;32.97;28.14;100717.91;5060325;28;20212;-68
2021/07/04 08:55:36;;;;;;;5.27;4.90;;;;;;;29.46;34.26;100723.34;5061713;28;20480;-65
2021/07/04 08:58:01;;;;;;;5.80;5.20;;;;;;;30.71;33.20;100717.88;5060961;28;20573;-66
2021/07/04 09:00:27;;;;;;;5.80;5.30;;;;;;;30.29;32.40;100714.72;5060978;28;20169;-65
2021/07/04 09:02:52;;;;;;;5.47;5.07;;;;;;;32.26;28.63;100704.91;5061231;28;20184;-66
2021/07/04 09:05:18;;;;;;;6.17;5.57;;;;;;;32.07;28.58;100718.06;5060919;28;20193;-66
2021/07/04 09:07:45;;;;;;;6.20;5.70;;;;;;;30.97;30.45;100719.53;5060858;28;20178;-66
2021/07/04 09:10:15;;;;;;;6.63;5.93;;;;;;;32.86;27.58;100702.63;5061297;28;20175;-66
2021/07/04 09:12:45;;;;;;;6.00;5.60;;;;;;;33.04;27.28;100711.84;5060633;28;20416;-66
2021/07/04 09:15:16;;;;;;;6.80;6.30;;;;;;;31.17;30.33;100713.50;5060727;28;20416;-66
2021/07/04 09:17:46;;;;;;;5.80;5.40;;;;;;;31.34;30.61;100708.66;5060672;28;20442;-66
2021/07/04 09:20:32;;;;;;;6.33;5.83;;;;;;;30.37;31.38;100714.16;5060610;28;20810;-65
2021/07/04 09:22:59;;;;;;;7.30;6.70;;;;;;;28.92;33.40;100727.06;5059769;28;20420;-66
2021/07/04 09:25:27;;;;;;;6.83;6.30;;;;;;;29.42;32.58;100714.66;5060378;28;20916;-65
2021/07/04 09:28:01;;;;;;;7.50;6.87;;;;;;;29.81;32.12;100718.16;5060454;28;20452;-66
2021/07/04 09:30:57;;;;;;;7.17;6.67;;;;;;;29.11;33.78;100708.72;5060297;28;20731;-65
2021/07/04 09:33:27;;;;;;;7.23;6.73;;;;;;;28.71;33.61;100717.66;5055601;28;20475;-66
2021/07/04 09:36:08;;;;;;;7.27;6.30;;;;;;;29.92;32.14;100703.97;5059653;28;20457;-65
2021/07/04 09:38:43;;;;;;;7.40;6.90;;;;;;;30.21;31.85;100703.66;5060507;28;20420;-66
2021/07/04 09:41:11;;;;;;;6.83;6.23;;;;;;;31.29;29.57;100709.00;5059636;28;20490;-66
2021/07/04 09:43:37;;;;;;;6.47;5.90;;;;;;;29.44;32.72;100712.72;5060115;28;20456;-66
2021/07/04 09:46:08;;;;;;;7.00;6.43;;;;;;;30.88;29.88;100713.91;5059929;28;20485;-65
2021/07/04 09:48:33;;;;;;;7.33;6.63;;;;;;;30.63;29.91;100700.59;5060393;28;20166;-66
2021/07/04 09:51:03;;;;;;;6.50;6.00;;;;;;;30.10;31.02;100696.38;5060155;28;20419;-66
2021/07/04 09:53:33;;;;;;;7.40;6.30;;;;;;;30.46;30.66;100696.47;5059062;28;20301;-65
2021/07/04 09:56:18;;;;;;;6.87;6.33;;;;;;;29.03;33.23;100701.19;5060376;28;20408;-66
2021/07/04 09:58:45;;;;;;;6.90;6.40;;;;;;;29.88;32.31;100699.81;5059693;28;20412;-66
2021/07/04 10:01:11;;;;;;;7.73;7.13;;;;;;;28.91;33.09;100707.38;5059862;28;20415;-66
2021/07/04 10:03:44;;;;;;;7.40;6.80;;;;;;;28.05;35.53;100704.06;5058792;28;20419;-66
2021/07/04 10:06:11;;;;;;;7.17;6.57;;;;;;;27.79;36.21;100696.81;5059751;28;20228;-66
2021/07/04 10:08:38;;;;;;;6.87;6.27;;;;;;;28.46;35.59;100702.31;5059064;28;20809;-65
2021/07/04 10:11:14;;;;;;;7.07;6.43;;;;;;;28.69;34.69;100697.28;5059780;28;20499;-66
2021/07/04 10:13:45;;;;;;;7.50;6.80;;;;;;;28.32;34.78;100705.91;5059642;28;20549;-66
2021/07/04 10:16:15;;;;;;;7.60;7.00;;;;;;;27.20;36.64;100695.06;5058037;28;20471;-65
2021/07/04 10:18:43;;;;;;;7.07;6.43;;;;;;;27.33;37.14;100684.44;5058115;28;20482;-66
2021/07/04 10:21:09;;;;;;;8.77;7.07;;;;;;;27.41;37.12;100690.22;5058975;28;20444;-66
2021/07/04 10:23:35;;;;;;;7.50;6.90;;;;;;;27.25;38.15;100702.78;5058706;28;20865;-66
2021/07/04 10:26:01;;;;;;;7.47;6.77;;;;;;;27.52;37.12;100695.78;5059516;28;20165;-66
2021/07/04 10:28:32;;;;;;;7.67;7.07;;;;;;;27.75;36.10;100682.72;5059596;28;20455;-66
2021/07/04 10:31:03;;;;;;;8.23;7.40;;;;;;;28.18;34.85;100677.31;5058892;28;20420;-65
2021/07/04 10:33:33;;;;;;;6.97;6.47;;;;;;;27.39;36.53;100682.28;5058489;28;20475;-65
2021/07/04 10:35:59;;;;;;;7.43;6.83;;;;;;;27.99;36.12;100682.13;5059357;28;20876;-65
2021/07/04 10:38:24;;;;;;;7.53;6.83;;;;;;;27.79;35.64;100675.38;5059215;28;20619;-66
2021/07/04 10:40:50;;;;;;;8.70;7.23;;;;;;;29.24;33.71;100671.13;5059359;28;20419;-65
2021/07/04 10:43:55;;;;;;;7.30;6.60;;;;;;;27.80;35.68;100675.28;5058993;28;20531;-65
2021/07/04 10:46:49;;;;;;;7.57;7.00;;;;;;;28.53;35.39;100671.44;5057951;28;20180;-65
2021/07/04 10:49:22;;;;;;;7.97;7.37;;;;;;;28.59;35.34;100670.19;5054279;28;20475;-65
2021/07/04 10:52:03;;;;;;;7.37;6.77;;;;;;;28.30;36.09;100670.28;5058956;28;20663;-65
2021/07/04 10:54:41;;;;;;;8.90;7.20;;;;;;;27.77;37.22;100664.75;5058998;28;20509;-65
2021/07/04 10:57:08;;;;;;;8.03;7.40;;;;;;;26.88;38.18;100663.94;5059242;28;20419;-65
2021/07/04 11:00:09;;;;;;;7.60;6.90;;;;;;;26.92;39.03;100666.44;5058626;28;20486;-65
2021/07/04 11:02:46;;;;;;;7.90;7.30;;;;;;;27.63;37.16;100662.97;5058426;28;20423;-65
2021/07/04 11:05:37;;;;;;;7.43;6.83;;;;;;;26.86;38.87;100662.31;5058643;28;20497;-65
2021/07/04 11:08:02;;;;;;;7.37;6.67;;;;;;;27.72;37.90;100665.06;5058517;28;20439;-64
2021/07/04 11:10:28;;;;;;;7.97;7.37;;;;;;;27.76;37.09;100652.31;5057994;28;20464;-65
2021/07/04 11:12:57;;;;;;;7.50;6.90;;;;;;;26.65;39.47;100662.59;5058299;28;20254;-63
2021/07/04 11:15:22;;;;;;;7.77;7.07;;;;;;;27.10;38.61;100657.28;5058871;28;20469;-66
2021/07/04 11:18:00;;;;;;;8.17;7.50;;;;;;;27.69;36.58;100667.06;5058371;28;20901;-66